Chiang Mai, Thailand

11:06 PM ICT on September 01, 2015 (GMT +0700)
ThaiWx Station | | Change Station
CLOSE
Current Station
Personal Weather Stations
Location: Chiang Mai, Pa Daet
Elevation: 1007 ft
Nearby Weather Stations

Elev 1007 ft 18.77 °N, 98.97 °E | Updated 27 minutes ago

Mostly Cloudy
Mestadels molnigt
84.0 °F
Feels Like 92 °F
N
0.0
Vind Växlande Vind from Ostlig
Gusts 0.0 miles/tim

Idag
High -- | Low -- °F
--% Chance of Precip.
Yesterday
High -- | Low -- °F
Precip. -- tum
6:09 AM 6:39 PM
Tredje kvarteret, 88% visible
Lufttryck 29.83 tum
Sikt 6.2 miles
Molnigt Mestadels molnigt 3500 ft
Värmeindex 92 °F
Daggpunkt 75 °F
Luftfuktighet 75%
Rainfall 0.00 tum
Snow Depth Not available.
UV 0 out of 12
Pollen Not available.
Air Quality Not available.
Flu Activity Not available.
METAR VTCC 011530Z 00000KT 9999 BKN035 28/22 Q1010 A2984 NOSIG
Lufttryck 29.83 tum
Sikt 6.2 miles
Molnigt Mestadels molnigt 3500 ft
Värmeindex 92 °F
Daggpunkt 75 °F
Luftfuktighet 75%
Rainfall 0.00 tum
Snow Depth Not available.
UV 0 out of 12
Pollen Not available.
Air Quality Not available.
Flu Activity Not available.
METAR VTCC 011530Z 00000KT 9999 BKN035 28/22 Q1010 A2984 NOSIG

10-Day Weather Forecast

×

Almanac

Astronomi

Sep. 01, 2015 Rise Set
Actual Time
Civil Twilight
Nautical Twilight
Astronomical Twilight
Månen
Length Of Visible Light
Dagens längd
Tomorrow will be .
, % of the Moon is Illuminated

Today's Extremes

Country Highs Country Lows

Community

WunderPhotos

Upload Photos

1,851,541 photos uploaded!

WunderBlogs® & News

Nearby

Air Quality

  Air Quality AQ Index Pollutant
Not available.

Snödjup

Station Depth Elevation

Earthquake Activity

Stad Distance Mag. Time & Date
Minimum magnitude displayed is 2.5.

Coastal Water Temperatures

Plats Temperatur

Stations

Nearby Weather Stations

Station Location Temp Vindavkylning Daggpunkt Luftfuktighet Vind Precip. Elev Uppdaterad Type